sensor_id;sensor_type;location;lat;lon;timestamp;temperature;humidity
63317;DHT22;49822;41.468;13.560;2022-08-21T00:01:53;21.30;80.10
63317;DHT22;49822;41.468;13.560;2022-08-21T00:04:21;21.50;79.80
63317;DHT22;49822;41.468;13.560;2022-08-21T00:06:55;21.50;78.80
63317;DHT22;49822;41.468;13.560;2022-08-21T00:09:23;21.50;79.00
63317;DHT22;49822;41.468;13.560;2022-08-21T00:11:51;21.50;78.80
63317;DHT22;49822;41.468;13.560;2022-08-21T00:14:18;21.40;78.70
63317;DHT22;49822;41.468;13.560;2022-08-21T00:16:45;21.30;79.70
63317;DHT22;49822;41.468;13.560;2022-08-21T00:19:13;21.10;79.40
63317;DHT22;49822;41.468;13.560;2022-08-21T00:21:42;20.80;81.80
63317;DHT22;49822;41.468;13.560;2022-08-21T00:24:12;20.90;81.90
63317;DHT22;49822;41.468;13.560;2022-08-21T00:26:39;20.70;82.10
63317;DHT22;49822;41.468;13.560;2022-08-21T00:29:07;20.50;83.50
63317;DHT22;49822;41.468;13.560;2022-08-21T00:31:35;20.30;84.20
63317;DHT22;49822;41.468;13.560;2022-08-21T00:34:02;19.90;86.70
63317;DHT22;49822;41.468;13.560;2022-08-21T00:36:30;20.10;85.60
63317;DHT22;49822;41.468;13.560;2022-08-21T00:38:58;20.50;84.00
63317;DHT22;49822;41.468;13.560;2022-08-21T00:41:25;20.70;82.90
63317;DHT22;49822;41.468;13.560;2022-08-21T00:44:06;20.80;82.50
63317;DHT22;49822;41.468;13.560;2022-08-21T00:46:35;21.00;81.50
63317;DHT22;49822;41.468;13.560;2022-08-21T00:49:05;21.20;81.30
63317;DHT22;49822;41.468;13.560;2022-08-21T00:51:50;21.30;80.00
63317;DHT22;49822;41.468;13.560;2022-08-21T00:54:22;21.40;79.80
63317;DHT22;49822;41.468;13.560;2022-08-21T00:56:58;21.40;79.30
63317;DHT22;49822;41.468;13.560;2022-08-21T00:59:28;21.10;79.70
63317;DHT22;49822;41.468;13.560;2022-08-21T01:01:56;20.60;82.50
63317;DHT22;49822;41.468;13.560;2022-08-21T01:04:24;20.50;83.70
63317;DHT22;49822;41.468;13.560;2022-08-21T01:06:53;20.60;83.70
63317;DHT22;49822;41.468;13.560;2022-08-21T01:09:22;20.80;82.80
63317;DHT22;49822;41.468;13.560;2022-08-21T01:11:49;21.00;81.80
63317;DHT22;49822;41.468;13.560;2022-08-21T01:14:18;21.10;81.50
63317;DHT22;49822;41.468;13.560;2022-08-21T01:16:50;21.10;81.10
63317;DHT22;49822;41.468;13.560;2022-08-21T01:19:20;21.30;80.00
63317;DHT22;49822;41.468;13.560;2022-08-21T01:21:48;21.30;80.10
63317;DHT22;49822;41.468;13.560;2022-08-21T01:24:15;20.90;80.70
63317;DHT22;49822;41.468;13.560;2022-08-21T01:26:44;20.90;81.80
63317;DHT22;49822;41.468;13.560;2022-08-21T01:29:30;20.80;81.40
63317;DHT22;49822;41.468;13.560;2022-08-21T01:32:08;20.50;83.80
63317;DHT22;49822;41.468;13.560;2022-08-21T01:34:38;20.50;84.00
63317;DHT22;49822;41.468;13.560;2022-08-21T01:37:07;20.50;83.50
63317;DHT22;49822;41.468;13.560;2022-08-21T01:39:36;20.60;83.10
63317;DHT22;49822;41.468;13.560;2022-08-21T01:42:05;20.80;82.50
63317;DHT22;49822;41.468;13.560;2022-08-21T01:44:35;20.90;81.90
63317;DHT22;49822;41.468;13.560;2022-08-21T01:47:05;21.00;81.30
63317;DHT22;49822;41.468;13.560;2022-08-21T01:49:35;21.10;80.60
63317;DHT22;49822;41.468;13.560;2022-08-21T01:52:04;20.90;80.50
63317;DHT22;49822;41.468;13.560;2022-08-21T01:54:36;20.50;82.90
63317;DHT22;49822;41.468;13.560;2022-08-21T01:57:04;20.40;84.20
63317;DHT22;49822;41.468;13.560;2022-08-21T01:59:33;20.50;83.60
63317;DHT22;49822;41.468;13.560;2022-08-21T02:02:00;20.70;82.90
63317;DHT22;49822;41.468;13.560;2022-08-21T02:04:29;20.80;82.30
63317;DHT22;49822;41.468;13.560;2022-08-21T02:06:58;20.80;81.70
63317;DHT22;49822;41.468;13.560;2022-08-21T02:09:27;20.50;83.00
63317;DHT22;49822;41.468;13.560;2022-08-21T02:11:56;20.00;85.10
63317;DHT22;49822;41.468;13.560;2022-08-21T02:14:24;20.00;86.40
63317;DHT22;49822;41.468;13.560;2022-08-21T02:16:59;20.30;85.50
63317;DHT22;49822;41.468;13.560;2022-08-21T02:19:31;20.50;84.00
63317;DHT22;49822;41.468;13.560;2022-08-21T02:22:10;20.70;83.30
63317;DHT22;49822;41.468;13.560;2022-08-21T02:24:38;20.80;82.20
63317;DHT22;49822;41.468;13.560;2022-08-21T02:27:24;20.90;81.10
63317;DHT22;49822;41.468;13.560;2022-08-21T02:29:56;21.00;80.80
63317;DHT22;49822;41.468;13.560;2022-08-21T02:32:25;21.10;80.20
63317;DHT22;49822;41.468;13.560;2022-08-21T02:34:53;21.00;79.50
63317;DHT22;49822;41.468;13.560;2022-08-21T02:37:21;20.70;81.10
63317;DHT22;49822;41.468;13.560;2022-08-21T02:39:48;20.60;82.20
63317;DHT22;49822;41.468;13.560;2022-08-21T02:42:16;20.50;82.30
63317;DHT22;49822;41.468;13.560;2022-08-21T02:44:44;20.50;82.50
63317;DHT22;49822;41.468;13.560;2022-08-21T02:47:11;20.50;82.70
63317;DHT22;49822;41.468;13.560;2022-08-21T02:49:40;20.50;81.50
63317;DHT22;49822;41.468;13.560;2022-08-21T02:52:07;20.50;81.70
63317;DHT22;49822;41.468;13.560;2022-08-21T02:54:35;20.50;81.70
63317;DHT22;49822;41.468;13.560;2022-08-21T02:57:02;20.30;81.50
63317;DHT22;49822;41.468;13.560;2022-08-21T02:59:30;20.30;82.90
63317;DHT22;49822;41.468;13.560;2022-08-21T03:01:57;20.10;82.60
63317;DHT22;49822;41.468;13.560;2022-08-21T03:04:25;19.40;87.40
63317;DHT22;49822;41.468;13.560;2022-08-21T03:06:53;19.30;89.20
63317;DHT22;49822;41.468;13.560;2022-08-21T03:09:21;19.30;89.20
63317;DHT22;49822;41.468;13.560;2022-08-21T03:11:48;19.50;88.70
63317;DHT22;49822;41.468;13.560;2022-08-21T03:14:16;19.70;87.60
63317;DHT22;49822;41.468;13.560;2022-08-21T03:16:44;20.00;86.40
63317;DHT22;49822;41.468;13.560;2022-08-21T03:19:12;20.10;84.80
63317;DHT22;49822;41.468;13.560;2022-08-21T03:21:40;20.30;83.80
63317;DHT22;49822;41.468;13.560;2022-08-21T03:24:08;20.10;83.70
63317;DHT22;49822;41.468;13.560;2022-08-21T03:26:37;20.10;83.50
63317;DHT22;49822;41.468;13.560;2022-08-21T03:29:08;19.90;83.70
63317;DHT22;49822;41.468;13.560;2022-08-21T03:31:35;19.50;86.10
63317;DHT22;49822;41.468;13.560;2022-08-21T03:34:03;19.30;88.20
63317;DHT22;49822;41.468;13.560;2022-08-21T03:36:31;19.30;88.50
63317;DHT22;49822;41.468;13.560;2022-08-21T03:38:59;19.30;88.90
63317;DHT22;49822;41.468;13.560;2022-08-21T03:41:26;19.50;88.50
63317;DHT22;49822;41.468;13.560;2022-08-21T03:43:53;19.70;87.70
63317;DHT22;49822;41.468;13.560;2022-08-21T03:46:21;19.90;86.00
63317;DHT22;49822;41.468;13.560;2022-08-21T03:48:48;20.00;85.50
63317;DHT22;49822;41.468;13.560;2022-08-21T03:51:17;20.10;84.70
63317;DHT22;49822;41.468;13.560;2022-08-21T03:53:44;20.30;83.70
63317;DHT22;49822;41.468;13.560;2022-08-21T03:56:12;20.30;82.90
63317;DHT22;49822;41.468;13.560;2022-08-21T03:58:40;20.30;81.30
63317;DHT22;49822;41.468;13.560;2022-08-21T04:01:07;19.90;83.80
63317;DHT22;49822;41.468;13.560;2022-08-21T04:03:37;19.80;85.00
63317;DHT22;49822;41.468;13.560;2022-08-21T04:06:05;19.90;84.60
63317;DHT22;49822;41.468;13.560;2022-08-21T04:08:32;20.00;83.60
63317;DHT22;49822;41.468;13.560;2022-08-21T04:11:00;20.10;82.60
63317;DHT22;49822;41.468;13.560;2022-08-21T04:13:28;19.80;82.50
63317;DHT22;49822;41.468;13.560;2022-08-21T04:15:56;19.50;85.30
63317;DHT22;49822;41.468;13.560;2022-08-21T04:18:25;19.30;86.30
63317;DHT22;49822;41.468;13.560;2022-08-21T04:20:53;19.10;87.50
63317;DHT22;49822;41.468;13.560;2022-08-21T04:23:21;19.10;88.50
63317;DHT22;49822;41.468;13.560;2022-08-21T04:25:51;19.00;89.20
63317;DHT22;49822;41.468;13.560;2022-08-21T04:28:20;19.00;89.50
63317;DHT22;49822;41.468;13.560;2022-08-21T04:30:50;19.20;89.40
63317;DHT22;49822;41.468;13.560;2022-08-21T04:33:20;19.40;87.80
63317;DHT22;49822;41.468;13.560;2022-08-21T04:35:49;19.50;87.00
63317;DHT22;49822;41.468;13.560;2022-08-21T04:38:17;19.50;86.70
63317;DHT22;49822;41.468;13.560;2022-08-21T04:40:47;19.70;85.90
63317;DHT22;49822;41.468;13.560;2022-08-21T04:43:17;19.90;85.30
63317;DHT22;49822;41.468;13.560;2022-08-21T04:45:47;20.10;84.20
63317;DHT22;49822;41.468;13.560;2022-08-21T04:48:19;20.30;83.50
63317;DHT22;49822;41.468;13.560;2022-08-21T04:51:18;20.10;82.90
63317;DHT22;49822;41.468;13.560;2022-08-21T04:53:54;20.10;82.20
63317;DHT22;49822;41.468;13.560;2022-08-21T04:56:26;20.00;83.50
63317;DHT22;49822;41.468;13.560;2022-08-21T04:58:58;20.10;83.20
63317;DHT22;49822;41.468;13.560;2022-08-21T05:01:29;20.40;82.80
63317;DHT22;49822;41.468;13.560;2022-08-21T05:03:59;20.80;81.00
63317;DHT22;49822;41.468;13.560;2022-08-21T05:06:28;20.90;79.90
63317;DHT22;49822;41.468;13.560;2022-08-21T05:08:58;21.10;79.10
63317;DHT22;49822;41.468;13.560;2022-08-21T05:11:29;21.30;78.10
63317;DHT22;49822;41.468;13.560;2022-08-21T05:13:57;21.20;78.30
63317;DHT22;49822;41.468;13.560;2022-08-21T05:16:25;21.10;78.10
63317;DHT22;49822;41.468;13.560;2022-08-21T05:19:07;21.10;78.30
63317;DHT22;49822;41.468;13.560;2022-08-21T05:21:37;21.10;78.20
63317;DHT22;49822;41.468;13.560;2022-08-21T05:24:05;21.30;78.30
63317;DHT22;49822;41.468;13.560;2022-08-21T05:26:33;21.30;78.30
63317;DHT22;49822;41.468;13.560;2022-08-21T05:29:16;21.40;78.00
63317;DHT22;49822;41.468;13.560;2022-08-21T05:31:45;21.50;77.20
63317;DHT22;49822;41.468;13.560;2022-08-21T05:34:20;21.70;76.80
63317;DHT22;49822;41.468;13.560;2022-08-21T05:36:48;21.70;76.70
63317;DHT22;49822;41.468;13.560;2022-08-21T05:39:16;21.70;76.50
63317;DHT22;49822;41.468;13.560;2022-08-21T05:41:44;21.70;76.40
63317;DHT22;49822;41.468;13.560;2022-08-21T05:44:11;21.50;76.60
63317;DHT22;49822;41.468;13.560;2022-08-21T05:46:39;21.40;77.30
63317;DHT22;49822;41.468;13.560;2022-08-21T05:49:06;21.40;77.70
63317;DHT22;49822;41.468;13.560;2022-08-21T05:51:36;21.50;77.20
63317;DHT22;49822;41.468;13.560;2022-08-21T05:54:03;21.90;76.20
63317;DHT22;49822;41.468;13.560;2022-08-21T05:56:30;22.30;74.90
63317;DHT22;49822;41.468;13.560;2022-08-21T05:58:58;22.50;74.30
63317;DHT22;49822;41.468;13.560;2022-08-21T06:01:34;22.50;74.20
63317;DHT22;49822;41.468;13.560;2022-08-21T06:04:03;22.60;74.00
63317;DHT22;49822;41.468;13.560;2022-08-21T06:06:32;22.70;73.80
63317;DHT22;49822;41.468;13.560;2022-08-21T06:08:59;22.80;74.10
63317;DHT22;49822;41.468;13.560;2022-08-21T06:11:27;22.70;74.40
63317;DHT22;49822;41.468;13.560;2022-08-21T06:13:55;22.80;74.30
63317;DHT22;49822;41.468;13.560;2022-08-21T06:16:23;22.90;73.80
63317;DHT22;49822;41.468;13.560;2022-08-21T06:18:51;22.90;73.00
63317;DHT22;49822;41.468;13.560;2022-08-21T06:21:19;23.00;72.90
63317;DHT22;49822;41.468;13.560;2022-08-21T06:23:49;23.00;72.80
63317;DHT22;49822;41.468;13.560;2022-08-21T06:26:16;23.00;72.80
63317;DHT22;49822;41.468;13.560;2022-08-21T06:28:44;22.90;73.20
63317;DHT22;49822;41.468;13.560;2022-08-21T06:31:21;22.90;73.20
63317;DHT22;49822;41.468;13.560;2022-08-21T06:33:49;22.90;73.60
63317;DHT22;49822;41.468;13.560;2022-08-21T06:36:19;22.70;74.40
63317;DHT22;49822;41.468;13.560;2022-08-21T06:38:48;22.30;73.90
63317;DHT22;49822;41.468;13.560;2022-08-21T06:41:19;22.40;73.50
63317;DHT22;49822;41.468;13.560;2022-08-21T06:43:53;22.30;73.10
63317;DHT22;49822;41.468;13.560;2022-08-21T06:46:22;22.40;73.50
63317;DHT22;49822;41.468;13.560;2022-08-21T06:48:51;22.60;73.00
63317;DHT22;49822;41.468;13.560;2022-08-21T06:51:19;22.60;73.30
63317;DHT22;49822;41.468;13.560;2022-08-21T06:53:48;22.90;72.50
63317;DHT22;49822;41.468;13.560;2022-08-21T06:56:16;23.00;71.60
63317;DHT22;49822;41.468;13.560;2022-08-21T06:58:44;23.00;70.70
63317;DHT22;49822;41.468;13.560;2022-08-21T07:01:11;23.00;70.80
63317;DHT22;49822;41.468;13.560;2022-08-21T07:03:42;23.10;71.10
63317;DHT22;49822;41.468;13.560;2022-08-21T07:06:10;23.50;69.60
63317;DHT22;49822;41.468;13.560;2022-08-21T07:08:38;23.60;67.90
63317;DHT22;49822;41.468;13.560;2022-08-21T07:11:18;23.60;68.00
63317;DHT22;49822;41.468;13.560;2022-08-21T07:13:46;23.90;67.60
63317;DHT22;49822;41.468;13.560;2022-08-21T07:16:14;24.10;67.90
63317;DHT22;49822;41.468;13.560;2022-08-21T07:18:42;24.30;66.70
63317;DHT22;49822;41.468;13.560;2022-08-21T07:21:09;24.40;65.90
63317;DHT22;49822;41.468;13.560;2022-08-21T07:23:45;24.60;64.60
63317;DHT22;49822;41.468;13.560;2022-08-21T07:26:15;24.50;65.00
63317;DHT22;49822;41.468;13.560;2022-08-21T07:28:45;24.40;65.40
63317;DHT22;49822;41.468;13.560;2022-08-21T07:31:20;24.50;64.80
63317;DHT22;49822;41.468;13.560;2022-08-21T07:33:52;24.60;64.60
63317;DHT22;49822;41.468;13.560;2022-08-21T07:36:23;24.80;63.70
63317;DHT22;49822;41.468;13.560;2022-08-21T07:38:55;25.00;64.20
63317;DHT22;49822;41.468;13.560;2022-08-21T07:41:26;25.00;63.00
63317;DHT22;49822;41.468;13.560;2022-08-21T07:43:58;25.00;62.20
63317;DHT22;49822;41.468;13.560;2022-08-21T07:46:27;25.10;63.10
63317;DHT22;49822;41.468;13.560;2022-08-21T07:48:58;25.20;62.00
63317;DHT22;49822;41.468;13.560;2022-08-21T07:51:28;24.80;62.70
63317;DHT22;49822;41.468;13.560;2022-08-21T07:53:59;24.70;64.10
63317;DHT22;49822;41.468;13.560;2022-08-21T07:56:29;24.90;63.20
63317;DHT22;49822;41.468;13.560;2022-08-21T07:59:00;24.80;63.30
63317;DHT22;49822;41.468;13.560;2022-08-21T08:01:31;25.00;63.20
63317;DHT22;49822;41.468;13.560;2022-08-21T08:04:01;25.00;62.70
63317;DHT22;49822;41.468;13.560;2022-08-21T08:06:28;25.00;64.00
63317;DHT22;49822;41.468;13.560;2022-08-21T08:08:56;25.20;63.10
63317;DHT22;49822;41.468;13.560;2022-08-21T08:11:25;25.60;61.70
63317;DHT22;49822;41.468;13.560;2022-08-21T08:13:55;25.80;60.30
63317;DHT22;49822;41.468;13.560;2022-08-21T08:16:26;25.80;60.70
63317;DHT22;49822;41.468;13.560;2022-08-21T08:18:55;25.80;60.90
63317;DHT22;49822;41.468;13.560;2022-08-21T08:21:25;26.00;60.70
63317;DHT22;49822;41.468;13.560;2022-08-21T08:23:55;26.10;60.30
63317;DHT22;49822;41.468;13.560;2022-08-21T08:26:25;26.10;59.80
63317;DHT22;49822;41.468;13.560;2022-08-21T08:28:57;26.20;60.40
63317;DHT22;49822;41.468;13.560;2022-08-21T08:31:28;26.40;58.90
63317;DHT22;49822;41.468;13.560;2022-08-21T08:33:59;26.50;59.40
63317;DHT22;49822;41.468;13.560;2022-08-21T08:36:44;26.70;59.10
63317;DHT22;49822;41.468;13.560;2022-08-21T08:39:11;26.80;57.30
63317;DHT22;49822;41.468;13.560;2022-08-21T08:45:08;27.00;56.60
63317;DHT22;49822;41.468;13.560;2022-08-21T08:47:46;27.00;57.00
63317;DHT22;49822;41.468;13.560;2022-08-21T08:50:27;27.20;57.00
63317;DHT22;49822;41.468;13.560;2022-08-21T08:53:06;27.30;56.20
63317;DHT22;49822;41.468;13.560;2022-08-21T08:55:43;27.50;54.30
63317;DHT22;49822;41.468;13.560;2022-08-21T08:58:25;27.60;53.50
63317;DHT22;49822;41.468;13.560;2022-08-21T09:01:07;27.70;53.40
63317;DHT22;49822;41.468;13.560;2022-08-21T09:03:42;27.80;53.50
63317;DHT22;49822;41.468;13.560;2022-08-21T09:06:30;27.90;52.20
63317;DHT22;49822;41.468;13.560;2022-08-21T09:09:28;27.80;53.00
63317;DHT22;49822;41.468;13.560;2022-08-21T09:15:02;27.70;53.60
63317;DHT22;49822;41.468;13.560;2022-08-21T09:22:52;27.90;52.60
63317;DHT22;49822;41.468;13.560;2022-08-21T09:28:22;27.50;52.50
63317;DHT22;49822;41.468;13.560;2022-08-21T09:30:54;27.40;53.10
63317;DHT22;49822;41.468;13.560;2022-08-21T09:33:29;27.60;53.80
63317;DHT22;49822;41.468;13.560;2022-08-21T09:35:57;27.70;53.40
63317;DHT22;49822;41.468;13.560;2022-08-21T09:38:32;28.00;54.40
63317;DHT22;49822;41.468;13.560;2022-08-21T09:41:08;28.10;52.60
63317;DHT22;49822;41.468;13.560;2022-08-21T09:43:39;28.20;53.10
63317;DHT22;49822;41.468;13.560;2022-08-21T09:46:25;28.50;52.30
63317;DHT22;49822;41.468;13.560;2022-08-21T09:48:55;28.80;51.20
63317;DHT22;49822;41.468;13.560;2022-08-21T09:51:32;28.90;51.40
63317;DHT22;49822;41.468;13.560;2022-08-21T09:56:40;29.00;50.90
63317;DHT22;49822;41.468;13.560;2022-08-21T09:59:37;29.00;49.40
63317;DHT22;49822;41.468;13.560;2022-08-21T10:02:27;29.00;50.00
63317;DHT22;49822;41.468;13.560;2022-08-21T10:05:19;29.10;50.60
63317;DHT22;49822;41.468;13.560;2022-08-21T10:07:53;29.40;49.90
63317;DHT22;49822;41.468;13.560;2022-08-21T10:10:28;29.80;49.50
63317;DHT22;49822;41.468;13.560;2022-08-21T10:19:32;29.90;49.20
63317;DHT22;49822;41.468;13.560;2022-08-21T10:22:38;30.10;46.10
63317;DHT22;49822;41.468;13.560;2022-08-21T10:25:31;30.30;48.60
63317;DHT22;49822;41.468;13.560;2022-08-21T10:28:31;30.60;47.20
63317;DHT22;49822;41.468;13.560;2022-08-21T10:31:07;30.90;47.10
63317;DHT22;49822;41.468;13.560;2022-08-21T10:36:32;30.70;44.70
63317;DHT22;49822;41.468;13.560;2022-08-21T10:39:22;30.50;44.70
63317;DHT22;49822;41.468;13.560;2022-08-21T10:42:23;30.60;43.40
63317;DHT22;49822;41.468;13.560;2022-08-21T10:47:52;30.00;45.20
63317;DHT22;49822;41.468;13.560;2022-08-21T10:50:38;30.30;46.10
63317;DHT22;49822;41.468;13.560;2022-08-21T10:53:20;30.70;44.70
63317;DHT22;49822;41.468;13.560;2022-08-21T10:56:24;30.90;44.10
63317;DHT22;49822;41.468;13.560;2022-08-21T10:59:07;30.90;43.30
63317;DHT22;49822;41.468;13.560;2022-08-21T11:02:08;31.10;44.10
63317;DHT22;49822;41.468;13.560;2022-08-21T11:04:48;31.20;43.20
63317;DHT22;49822;41.468;13.560;2022-08-21T11:13:24;30.30;41.70
63317;DHT22;49822;41.468;13.560;2022-08-21T11:16:23;30.00;41.40
63317;DHT22;49822;41.468;13.560;2022-08-21T11:19:02;29.70;41.10
63317;DHT22;49822;41.468;13.560;2022-08-21T11:21:48;29.90;42.40
63317;DHT22;49822;41.468;13.560;2022-08-21T11:24:44;30.50;36.40
63317;DHT22;49822;41.468;13.560;2022-08-21T11:29:47;30.70;37.20
63317;DHT22;49822;41.468;13.560;2022-08-21T11:35:04;30.90;35.40
63317;DHT22;49822;41.468;13.560;2022-08-21T11:50:35;31.40;29.90
63317;DHT22;49822;41.468;13.560;2022-08-21T11:53:35;31.40;28.60
63317;DHT22;49822;41.468;13.560;2022-08-21T11:56:15;31.40;31.00
63317;DHT22;49822;41.468;13.560;2022-08-21T11:58:52;31.70;32.20
63317;DHT22;49822;41.468;13.560;2022-08-21T12:01:29;32.10;30.80
63317;DHT22;49822;41.468;13.560;2022-08-21T12:04:28;32.50;31.90
63317;DHT22;49822;41.468;13.560;2022-08-21T12:06:55;32.60;30.80
63317;DHT22;49822;41.468;13.560;2022-08-21T12:09:33;32.20;30.80
63317;DHT22;49822;41.468;13.560;2022-08-21T12:15:04;31.90;32.90
63317;DHT22;49822;41.468;13.560;2022-08-21T12:17:38;31.70;31.90
63317;DHT22;49822;41.468;13.560;2022-08-21T12:23:44;31.50;33.30
63317;DHT22;49822;41.468;13.560;2022-08-21T12:26:24;31.20;33.90
63317;DHT22;49822;41.468;13.560;2022-08-21T12:29:10;31.50;43.80
63317;DHT22;49822;41.468;13.560;2022-08-21T12:32:00;31.00;44.10
63317;DHT22;49822;41.468;13.560;2022-08-21T12:35:10;30.50;47.00
63317;DHT22;49822;41.468;13.560;2022-08-21T12:40:53;29.70;50.40
63317;DHT22;49822;41.468;13.560;2022-08-21T12:43:35;29.70;49.90
63317;DHT22;49822;41.468;13.560;2022-08-21T12:46:06;29.70;51.70
63317;DHT22;49822;41.468;13.560;2022-08-21T12:48:41;30.30;50.30
63317;DHT22;49822;41.468;13.560;2022-08-21T12:51:12;30.30;50.10
63317;DHT22;49822;41.468;13.560;2022-08-21T12:53:55;30.50;51.30
63317;DHT22;49822;41.468;13.560;2022-08-21T12:56:29;30.30;52.70
63317;DHT22;49822;41.468;13.560;2022-08-21T12:59:05;29.90;52.20
63317;DHT22;49822;41.468;13.560;2022-08-21T13:02:00;29.50;54.40
63317;DHT22;49822;41.468;13.560;2022-08-21T13:04:39;29.30;55.90
63317;DHT22;49822;41.468;13.560;2022-08-21T13:07:11;29.40;55.10
63317;DHT22;49822;41.468;13.560;2022-08-21T13:10:00;29.50;55.70
63317;DHT22;49822;41.468;13.560;2022-08-21T13:12:29;29.50;54.80
63317;DHT22;49822;41.468;13.560;2022-08-21T13:15:03;29.20;56.00
63317;DHT22;49822;41.468;13.560;2022-08-21T13:17:39;29.20;55.70
63317;DHT22;49822;41.468;13.560;2022-08-21T13:20:19;29.20;56.00
63317;DHT22;49822;41.468;13.560;2022-08-21T13:22:46;28.90;56.50
63317;DHT22;49822;41.468;13.560;2022-08-21T13:25:17;28.90;56.70
63317;DHT22;49822;41.468;13.560;2022-08-21T13:30:28;28.60;57.30
63317;DHT22;49822;41.468;13.560;2022-08-21T13:33:02;28.50;58.00
63317;DHT22;49822;41.468;13.560;2022-08-21T13:35:47;28.30;58.40
63317;DHT22;49822;41.468;13.560;2022-08-21T13:38:19;28.10;58.90
63317;DHT22;49822;41.468;13.560;2022-08-21T13:41:03;28.00;59.00
63317;DHT22;49822;41.468;13.560;2022-08-21T13:43:34;27.80;59.30
63317;DHT22;49822;41.468;13.560;2022-08-21T13:46:10;27.60;61.10
63317;DHT22;49822;41.468;13.560;2022-08-21T13:48:39;27.50;61.50
63317;DHT22;49822;41.468;13.560;2022-08-21T13:51:08;27.50;62.00
63317;DHT22;49822;41.468;13.560;2022-08-21T13:56:43;27.70;61.70
63317;DHT22;49822;41.468;13.560;2022-08-21T13:59:10;27.50;63.30
63317;DHT22;49822;41.468;13.560;2022-08-21T14:01:49;27.50;63.50
63317;DHT22;49822;41.468;13.560;2022-08-21T14:04:55;27.70;62.40
63317;DHT22;49822;41.468;13.560;2022-08-21T14:09:54;27.80;62.50
63317;DHT22;49822;41.468;13.560;2022-08-21T14:12:29;27.80;61.20
63317;DHT22;49822;41.468;13.560;2022-08-21T14:14:57;28.00;60.90
63317;DHT22;49822;41.468;13.560;2022-08-21T14:17:35;27.90;61.60
63317;DHT22;49822;41.468;13.560;2022-08-21T14:20:11;27.90;61.70
63317;DHT22;49822;41.468;13.560;2022-08-21T14:22:46;27.80;61.90
63317;DHT22;49822;41.468;13.560;2022-08-21T14:28:02;28.00;61.70
63317;DHT22;49822;41.468;13.560;2022-08-21T14:30:39;28.10;61.10
63317;DHT22;49822;41.468;13.560;2022-08-21T14:33:12;28.30;60.40
63317;DHT22;49822;41.468;13.560;2022-08-21T14:35:40;28.30;60.50
63317;DHT22;49822;41.468;13.560;2022-08-21T14:38:18;28.40;58.90
63317;DHT22;49822;41.468;13.560;2022-08-21T14:40:50;28.50;58.70
63317;DHT22;49822;41.468;13.560;2022-08-21T14:43:18;28.50;58.50
63317;DHT22;49822;41.468;13.560;2022-08-21T14:45:47;28.80;58.00
63317;DHT22;49822;41.468;13.560;2022-08-21T14:48:14;28.90;57.30
63317;DHT22;49822;41.468;13.560;2022-08-21T14:50:41;28.90;57.60
63317;DHT22;49822;41.468;13.560;2022-08-21T14:53:12;28.90;57.80
63317;DHT22;49822;41.468;13.560;2022-08-21T14:55:40;28.90;58.60
63317;DHT22;49822;41.468;13.560;2022-08-21T14:58:27;28.90;58.20
63317;DHT22;49822;41.468;13.560;2022-08-21T15:00:54;28.80;57.90
63317;DHT22;49822;41.468;13.560;2022-08-21T15:03:27;28.70;57.40
63317;DHT22;49822;41.468;13.560;2022-08-21T15:05:54;28.70;58.40
63317;DHT22;49822;41.468;13.560;2022-08-21T15:08:23;28.90;57.90
63317;DHT22;49822;41.468;13.560;2022-08-21T15:10:52;28.90;57.80
63317;DHT22;49822;41.468;13.560;2022-08-21T15:13:37;28.90;56.00
63317;DHT22;49822;41.468;13.560;2022-08-21T15:16:05;28.80;57.10
63317;DHT22;49822;41.468;13.560;2022-08-21T15:18:33;28.70;57.00
63317;DHT22;49822;41.468;13.560;2022-08-21T15:21:01;28.60;56.90
63317;DHT22;49822;41.468;13.560;2022-08-21T15:23:29;28.70;58.20
63317;DHT22;49822;41.468;13.560;2022-08-21T15:25:56;28.90;58.10
63317;DHT22;49822;41.468;13.560;2022-08-21T15:28:26;28.90;56.20
63317;DHT22;49822;41.468;13.560;2022-08-21T15:31:00;28.90;57.00
63317;DHT22;49822;41.468;13.560;2022-08-21T15:33:28;28.90;57.30
63317;DHT22;49822;41.468;13.560;2022-08-21T15:35:56;28.90;56.70
63317;DHT22;49822;41.468;13.560;2022-08-21T15:38:24;28.90;56.40
63317;DHT22;49822;41.468;13.560;2022-08-21T15:40:52;28.90;56.30
63317;DHT22;49822;41.468;13.560;2022-08-21T15:43:35;28.90;56.00
63317;DHT22;49822;41.468;13.560;2022-08-21T15:46:11;28.90;55.80
63317;DHT22;49822;41.468;13.560;2022-08-21T15:48:41;28.90;55.10
63317;DHT22;49822;41.468;13.560;2022-08-21T15:51:10;28.90;55.40
63317;DHT22;49822;41.468;13.560;2022-08-21T15:53:39;29.00;55.20
63317;DHT22;49822;41.468;13.560;2022-08-21T15:56:23;29.40;53.80
63317;DHT22;49822;41.468;13.560;2022-08-21T15:58:57;29.70;54.00
63317;DHT22;49822;41.468;13.560;2022-08-21T16:01:28;30.00;53.10
63317;DHT22;49822;41.468;13.560;2022-08-21T16:04:15;30.10;53.30
63317;DHT22;49822;41.468;13.560;2022-08-21T16:06:44;30.30;53.10
63317;DHT22;49822;41.468;13.560;2022-08-21T16:09:20;30.20;52.90
63317;DHT22;49822;41.468;13.560;2022-08-21T16:11:49;30.10;53.50
63317;DHT22;49822;41.468;13.560;2022-08-21T16:14:17;30.10;53.50
63317;DHT22;49822;41.468;13.560;2022-08-21T16:16:46;30.00;53.10
63317;DHT22;49822;41.468;13.560;2022-08-21T16:19:15;30.10;53.90
63317;DHT22;49822;41.468;13.560;2022-08-21T16:21:43;30.00;53.70
63317;DHT22;49822;41.468;13.560;2022-08-21T16:24:11;29.60;54.00
63317;DHT22;49822;41.468;13.560;2022-08-21T16:26:42;29.20;54.70
63317;DHT22;49822;41.468;13.560;2022-08-21T16:29:10;28.90;56.00
63317;DHT22;49822;41.468;13.560;2022-08-21T16:31:49;28.60;57.40
63317;DHT22;49822;41.468;13.560;2022-08-21T16:34:18;28.50;57.70
63317;DHT22;49822;41.468;13.560;2022-08-21T16:36:49;28.50;58.60
63317;DHT22;49822;41.468;13.560;2022-08-21T16:39:16;28.00;61.20
63317;DHT22;49822;41.468;13.560;2022-08-21T16:41:44;27.40;63.80
63317;DHT22;49822;41.468;13.560;2022-08-21T16:44:12;27.20;64.40
63317;DHT22;49822;41.468;13.560;2022-08-21T16:46:40;26.90;65.80
63317;DHT22;49822;41.468;13.560;2022-08-21T16:49:08;26.90;65.60
63317;DHT22;49822;41.468;13.560;2022-08-21T16:51:36;26.80;64.90
63317;DHT22;49822;41.468;13.560;2022-08-21T16:54:04;26.40;63.10
63317;DHT22;49822;41.468;13.560;2022-08-21T16:56:31;26.20;59.40
63317;DHT22;49822;41.468;13.560;2022-08-21T16:58:59;25.60;56.80
63317;DHT22;49822;41.468;13.560;2022-08-21T17:01:28;25.40;56.00
63317;DHT22;49822;41.468;13.560;2022-08-21T17:03:58;25.30;55.80